createdAt,value
2022-08-25T00:01:56.423Z,4.27
2022-08-25T00:04:23.855Z,3.50
2022-08-25T00:06:52.719Z,3.73
2022-08-25T00:09:22.533Z,4.00
2022-08-25T00:11:49.902Z,4.17
2022-08-25T00:14:26.383Z,3.80
2022-08-25T00:16:53.355Z,3.83
2022-08-25T00:19:26.468Z,4.07
2022-08-25T00:21:53.651Z,4.17
2022-08-25T00:24:21.247Z,4.30
2022-08-25T00:26:51.555Z,3.90
2022-08-25T00:29:19.338Z,4.40
2022-08-25T00:31:46.551Z,3.90
2022-08-25T00:34:22.572Z,4.80
2022-08-25T00:36:51.589Z,5.23
2022-08-25T00:39:21.008Z,4.33
2022-08-25T00:41:49.740Z,4.40
2022-08-25T00:44:18.327Z,4.00
2022-08-25T00:46:53.333Z,4.50
2022-08-25T00:49:25.395Z,4.37
2022-08-25T00:52:02.258Z,4.57
2022-08-25T00:54:34.775Z,4.30
2022-08-25T00:57:02.459Z,4.23
2022-08-25T00:59:30.041Z,4.60
2022-08-25T01:01:58.823Z,4.60
2022-08-25T01:04:25.636Z,4.00
2022-08-25T01:06:52.758Z,4.60
2022-08-25T01:09:20.114Z,4.27
2022-08-25T01:11:47.723Z,4.43
2022-08-25T01:14:18.867Z,4.30
2022-08-25T01:16:46.269Z,4.37
2022-08-25T01:19:17.575Z,4.37
2022-08-25T01:21:46.947Z,4.23
2022-08-25T01:24:24.344Z,4.30
2022-08-25T01:26:51.034Z,4.50
2022-08-25T01:29:20.872Z,4.60
2022-08-25T01:31:55.847Z,4.30
2022-08-25T01:34:23.143Z,4.53
2022-08-25T01:36:50.495Z,4.47
2022-08-25T01:39:17.760Z,4.17
2022-08-25T01:42:02.413Z,4.33
2022-08-25T01:44:29.258Z,4.30
2022-08-25T01:46:56.159Z,4.90
2022-08-25T01:49:22.798Z,4.63
2022-08-25T01:51:57.569Z,4.57
2022-08-25T01:54:24.513Z,4.83
2022-08-25T01:56:51.119Z,4.77
2022-08-25T01:59:24.134Z,4.80
2022-08-25T02:01:51.759Z,4.90
2022-08-25T02:04:26.892Z,4.70
2022-08-25T02:06:53.535Z,4.27
2022-08-25T02:09:20.098Z,4.73
2022-08-25T02:11:47.831Z,4.67
2022-08-25T02:14:15.666Z,4.67
2022-08-25T02:16:45.152Z,4.80
2022-08-25T02:19:12.371Z,4.70
2022-08-25T02:21:39.669Z,5.10
2022-08-25T02:24:06.974Z,5.33
2022-08-25T02:26:33.922Z,4.50
2022-08-25T02:29:01.186Z,4.97
2022-08-25T02:31:28.948Z,5.17
2022-08-25T02:33:56.890Z,5.37
2022-08-25T02:36:23.856Z,5.37
2022-08-25T02:38:50.854Z,5.10
2022-08-25T02:41:20.928Z,4.97
2022-08-25T02:43:48.670Z,4.53
2022-08-25T02:46:19.793Z,4.90
2022-08-25T02:48:47.321Z,5.30
2022-08-25T02:51:14.925Z,4.83
2022-08-25T02:53:42.895Z,5.13
2022-08-25T02:56:11.710Z,4.97
2022-08-25T02:58:39.345Z,4.87
2022-08-25T03:01:07.514Z,5.00
2022-08-25T03:03:38.782Z,5.23
2022-08-25T03:06:08.080Z,4.60
2022-08-25T03:08:35.788Z,4.77
2022-08-25T03:11:02.727Z,5.40
2022-08-25T03:13:29.322Z,4.80
2022-08-25T03:15:55.901Z,5.43
2022-08-25T03:18:23.139Z,5.03
2022-08-25T03:20:51.246Z,5.13
2022-08-25T03:23:18.105Z,5.00
2022-08-25T03:26:03.663Z,4.93
2022-08-25T03:28:32.138Z,4.97
2022-08-25T03:31:00.343Z,4.93
2022-08-25T03:33:28.367Z,5.17
2022-08-25T03:35:55.472Z,4.90
2022-08-25T03:38:25.284Z,5.80
2022-08-25T03:40:52.765Z,5.60
2022-08-25T03:43:20.013Z,5.10
2022-08-25T03:45:47.812Z,5.33
2022-08-25T03:48:16.072Z,5.10
2022-08-25T03:50:50.521Z,5.83
2022-08-25T03:53:19.338Z,5.57
2022-08-25T03:55:46.178Z,5.67
2022-08-25T03:58:12.893Z,5.33
2022-08-25T04:00:39.557Z,5.47
2022-08-25T04:03:06.403Z,5.43
2022-08-25T04:05:33.485Z,6.10
2022-08-25T04:08:03.564Z,5.87
2022-08-25T04:10:31.803Z,5.20
2022-08-25T04:12:58.557Z,6.40
2022-08-25T04:15:30.126Z,5.60
2022-08-25T04:17:58.790Z,5.87
2022-08-25T04:20:25.749Z,6.00
2022-08-25T04:22:52.322Z,5.80
2022-08-25T04:25:18.921Z,6.70
2022-08-25T04:27:45.518Z,6.17
2022-08-25T04:30:12.868Z,6.37
2022-08-25T04:32:39.479Z,6.63
2022-08-25T04:35:07.459Z,6.07
2022-08-25T04:37:34.474Z,5.13
2022-08-25T04:40:01.620Z,5.87
2022-08-25T04:42:28.431Z,5.27
2022-08-25T04:44:55.035Z,6.17
2022-08-25T04:47:22.121Z,6.40
2022-08-25T04:49:48.946Z,6.30
2022-08-25T04:52:15.793Z,6.23
2022-08-25T04:54:43.910Z,5.70
2022-08-25T04:57:10.896Z,6.23
2022-08-25T04:59:37.835Z,6.80
2022-08-25T05:02:06.485Z,5.93
2022-08-25T05:04:35.784Z,5.80
2022-08-25T05:07:03.434Z,6.50
2022-08-25T05:09:32.635Z,5.53
2022-08-25T05:12:03.632Z,6.27
2022-08-25T05:14:31.918Z,6.83
2022-08-25T05:16:58.708Z,6.47
2022-08-25T05:19:26.414Z,6.70
2022-08-25T05:21:53.825Z,6.63
2022-08-25T05:24:21.487Z,7.07
2022-08-25T05:26:49.243Z,7.13
2022-08-25T05:29:16.383Z,6.83
2022-08-25T05:31:48.264Z,6.93
2022-08-25T05:34:18.311Z,7.07
2022-08-25T05:36:44.968Z,7.13
2022-08-25T05:39:12.759Z,6.67
2022-08-25T05:41:39.347Z,6.23
2022-08-25T05:44:05.976Z,7.07
2022-08-25T05:46:32.984Z,6.53
2022-08-25T05:48:59.600Z,6.87
2022-08-25T05:51:26.571Z,6.00
2022-08-25T05:53:53.541Z,6.50
2022-08-25T05:56:21.211Z,6.03
2022-08-25T05:58:48.524Z,6.60
2022-08-25T06:01:46.431Z,6.67
2022-08-25T06:04:15.451Z,6.80
2022-08-25T06:06:42.245Z,7.13
2022-08-25T06:09:09.650Z,6.40
2022-08-25T06:11:37.902Z,7.10
2022-08-25T06:14:04.721Z,7.70
2022-08-25T06:16:31.658Z,8.50
2022-08-25T06:18:58.375Z,8.37
2022-08-25T06:21:25.375Z,8.33
2022-08-25T06:23:52.764Z,7.90
2022-08-25T06:26:21.045Z,6.73
2022-08-25T06:28:49.675Z,7.50
2022-08-25T06:31:17.061Z,8.80
2022-08-25T06:33:44.234Z,8.33
2022-08-25T06:36:10.928Z,7.77
2022-08-25T06:38:37.592Z,7.90
2022-08-25T06:41:05.747Z,8.40
2022-08-25T06:43:33.934Z,8.00
2022-08-25T06:46:14.578Z,7.67
2022-08-25T06:48:41.888Z,6.63
2022-08-25T06:51:13.848Z,7.97
2022-08-25T06:53:41.593Z,7.87
2022-08-25T06:56:08.817Z,7.07
2022-08-25T06:58:35.806Z,7.53
2022-08-25T07:01:12.335Z,7.53
2022-08-25T07:03:42.922Z,7.23
2022-08-25T07:06:09.973Z,6.87
2022-08-25T07:08:37.127Z,7.53
2022-08-25T07:11:07.968Z,7.00
2022-08-25T07:13:43.401Z,7.10
2022-08-25T07:16:11.367Z,7.23
2022-08-25T07:18:38.344Z,6.83
2022-08-25T07:21:05.347Z,6.97
2022-08-25T07:23:36.181Z,7.40
2022-08-25T07:29:09.697Z,7.03
2022-08-25T07:31:36.416Z,7.33
2022-08-25T07:34:22.543Z,6.53
2022-08-25T07:36:49.571Z,7.57
2022-08-25T07:39:17.485Z,7.27
2022-08-25T07:41:51.901Z,6.70
2022-08-25T07:44:20.711Z,6.60
2022-08-25T07:46:48.258Z,6.60
2022-08-25T07:49:23.147Z,7.43
2022-08-25T07:52:05.022Z,6.77
2022-08-25T07:54:35.135Z,6.90
2022-08-25T07:57:05.906Z,7.10
2022-08-25T07:59:34.798Z,6.97
2022-08-25T08:02:19.083Z,6.10
2022-08-25T08:04:49.533Z,6.60
2022-08-25T08:07:23.147Z,6.50
2022-08-25T08:09:56.426Z,6.43
2022-08-25T08:12:37.545Z,6.73
2022-08-25T08:15:05.139Z,6.77
2022-08-25T08:17:37.542Z,6.37
2022-08-25T08:20:10.591Z,6.50
2022-08-25T08:22:41.787Z,6.43
2022-08-25T08:25:11.163Z,7.57
2022-08-25T08:27:46.166Z,7.00
2022-08-25T08:30:13.918Z,6.20
2022-08-25T08:33:08.157Z,6.80
2022-08-25T08:35:27.548Z,6.87
2022-08-25T08:37:54.170Z,6.77
2022-08-25T08:40:21.087Z,6.90
2022-08-25T08:43:18.133Z,6.47
2022-08-25T08:45:51.872Z,6.80
2022-08-25T08:48:49.586Z,6.60
2022-08-25T08:51:23.097Z,5.80
2022-08-25T08:54:15.196Z,6.03
2022-08-25T08:56:48.089Z,6.60
2022-08-25T08:59:22.229Z,6.10
2022-08-25T09:02:00.957Z,5.97
2022-08-25T09:04:51.467Z,5.53
2022-08-25T09:07:29.230Z,5.55
2022-08-25T09:09:59.166Z,6.20
2022-08-25T09:12:41.156Z,6.30
2022-08-25T09:15:20.887Z,6.30
2022-08-25T09:18:12.964Z,6.10
2022-08-25T09:20:49.851Z,6.63
2022-08-25T09:23:52.117Z,7.13
2022-08-25T09:26:28.373Z,5.53
2022-08-25T09:29:06.168Z,5.65
2022-08-25T09:31:38.896Z,5.63
2022-08-25T09:34:39.745Z,5.57
2022-08-25T09:37:12.172Z,6.00
2022-08-25T09:39:44.445Z,5.78
2022-08-25T09:42:19.043Z,5.50
2022-08-25T09:44:55.996Z,5.30
2022-08-25T09:47:36.014Z,5.45
2022-08-25T09:50:05.281Z,5.55
2022-08-25T09:52:44.254Z,5.38
2022-08-25T09:55:14.698Z,4.78
2022-08-25T09:57:47.004Z,5.30
2022-08-25T10:00:19.744Z,5.07
2022-08-25T10:03:05.928Z,4.93
2022-08-25T10:05:35.746Z,4.93
2022-08-25T10:08:14.544Z,5.78
2022-08-25T10:10:54.866Z,4.75
2022-08-25T10:13:32.291Z,5.13
2022-08-25T10:16:13.768Z,4.65
2022-08-25T10:19:32.228Z,4.68
2022-08-25T10:22:32.956Z,4.90
2022-08-25T10:25:00.380Z,4.97
2022-08-25T10:27:57.676Z,5.28
2022-08-25T10:30:35.520Z,5.13
2022-08-25T10:33:27.478Z,5.90
2022-08-25T10:36:20.491Z,5.40
2022-08-25T10:38:55.311Z,5.55
2022-08-25T10:41:40.019Z,4.88
2022-08-25T10:44:48.654Z,5.30
2022-08-25T10:47:35.607Z,5.72
2022-08-25T10:50:23.615Z,5.25
2022-08-25T10:53:13.616Z,5.25
2022-08-25T10:55:55.293Z,5.30
2022-08-25T10:58:30.919Z,5.93
2022-08-25T11:01:36.702Z,5.03
2022-08-25T11:04:33.513Z,5.63
2022-08-25T11:07:11.968Z,5.40
2022-08-25T11:09:42.923Z,4.75
2022-08-25T11:12:18.330Z,5.05
2022-08-25T11:14:59.902Z,5.20
2022-08-25T11:17:44.242Z,5.40
2022-08-25T11:20:26.637Z,5.47
2022-08-25T11:23:00.072Z,5.47
2022-08-25T11:25:30.644Z,5.45
2022-08-25T11:28:08.767Z,4.90
2022-08-25T11:30:38.622Z,5.38
2022-08-25T11:33:07.667Z,5.32
2022-08-25T11:35:44.060Z,4.88
2022-08-25T11:38:12.381Z,5.35
2022-08-25T11:40:44.379Z,5.40
2022-08-25T11:43:58.405Z,5.32
2022-08-25T11:46:46.651Z,5.07
2022-08-25T11:49:37.384Z,4.75
2022-08-25T11:52:30.593Z,4.82
2022-08-25T11:55:23.149Z,4.90
2022-08-25T11:57:53.722Z,4.47
2022-08-25T12:00:42.960Z,5.00
2022-08-25T12:03:41.851Z,5.32
2022-08-25T12:06:23.418Z,4.63
2022-08-25T12:09:05.481Z,4.50
2022-08-25T12:11:38.057Z,4.10
2022-08-25T12:14:28.169Z,4.65
2022-08-25T12:16:55.169Z,4.25
2022-08-25T12:19:35.998Z,4.45
2022-08-25T12:22:03.285Z,4.60
2022-08-25T12:24:47.743Z,4.50
2022-08-25T12:27:20.977Z,3.85
2022-08-25T12:29:51.163Z,4.07
2022-08-25T12:32:32.743Z,4.60
2022-08-25T12:35:25.716Z,4.35
2022-08-25T12:38:09.311Z,3.92
2022-08-25T12:40:57.656Z,4.20
2022-08-25T12:43:26.800Z,4.13
2022-08-25T12:46:14.898Z,4.10
2022-08-25T12:48:58.738Z,4.07
2022-08-25T12:51:33.185Z,4.50
2022-08-25T12:54:30.487Z,4.40
2022-08-25T12:57:01.654Z,4.05
2022-08-25T12:59:36.398Z,3.97
2022-08-25T13:02:14.819Z,4.30
2022-08-25T13:04:59.877Z,4.40
2022-08-25T13:07:34.311Z,3.95
2022-08-25T13:10:42.663Z,4.13
2022-08-25T13:13:24.228Z,3.67
2022-08-25T13:16:07.963Z,3.78
2022-08-25T13:18:36.731Z,3.70
2022-08-25T13:21:13.535Z,4.18
2022-08-25T13:23:42.636Z,3.88
2022-08-25T13:26:15.169Z,4.03
2022-08-25T13:28:50.396Z,4.13
2022-08-25T13:31:22.417Z,3.53
2022-08-25T13:34:05.306Z,3.53
2022-08-25T13:37:10.855Z,3.22
2022-08-25T13:39:55.811Z,3.67
2022-08-25T13:42:24.460Z,3.70
2022-08-25T13:44:55.839Z,3.60
2022-08-25T13:47:55.908Z,3.60
2022-08-25T13:50:26.385Z,3.50
2022-08-25T13:53:00.956Z,3.45
2022-08-25T13:55:38.204Z,3.28
2022-08-25T13:58:38.683Z,3.63
2022-08-25T14:01:48.822Z,3.55
2022-08-25T14:04:31.876Z,3.58
2022-08-25T14:07:20.372Z,3.75
2022-08-25T14:09:48.586Z,3.50
2022-08-25T14:12:37.398Z,3.33
2022-08-25T14:15:06.645Z,3.45
2022-08-25T14:17:40.262Z,3.10
2022-08-25T14:20:17.716Z,3.10
2022-08-25T14:22:44.329Z,3.47
2022-08-25T14:25:11.239Z,3.40
2022-08-25T14:28:03.621Z,3.30
2022-08-25T14:30:29.988Z,3.08
2022-08-25T14:32:58.509Z,3.53
2022-08-25T14:35:25.167Z,3.10
2022-08-25T14:37:52.032Z,3.33
2022-08-25T14:40:19.946Z,3.28
2022-08-25T14:42:47.491Z,3.25
2022-08-25T14:45:18.408Z,3.30
2022-08-25T14:47:49.827Z,3.22
2022-08-25T14:50:20.874Z,3.22
2022-08-25T14:52:48.227Z,3.33
2022-08-25T14:55:24.078Z,3.15
2022-08-25T14:57:59.213Z,3.10
2022-08-25T15:00:26.386Z,3.45
2022-08-25T15:02:54.913Z,3.50
2022-08-25T15:05:25.658Z,3.08
2022-08-25T15:08:12.277Z,3.70
2022-08-25T15:10:39.859Z,3.25
2022-08-25T15:13:07.145Z,2.90
2022-08-25T15:15:39.210Z,3.03
2022-08-25T15:18:20.035Z,3.30
2022-08-25T15:20:46.994Z,3.10
2022-08-25T15:23:20.325Z,3.22
2022-08-25T15:25:49.558Z,3.30
2022-08-25T15:28:22.147Z,3.17
2022-08-25T15:30:49.856Z,3.20
2022-08-25T15:33:17.282Z,3.30
2022-08-25T15:35:44.118Z,2.80
2022-08-25T15:38:13.449Z,3.13
2022-08-25T15:40:40.324Z,3.90
2022-08-25T15:43:07.444Z,3.22
2022-08-25T15:45:35.922Z,3.35
2022-08-25T15:48:03.358Z,3.30
2022-08-25T15:50:29.966Z,3.17
2022-08-25T15:52:56.690Z,3.33
2022-08-25T15:55:23.464Z,3.30
2022-08-25T15:57:50.418Z,3.28
2022-08-25T16:00:18.088Z,3.33
2022-08-25T16:02:45.626Z,3.75
2022-08-25T16:05:13.700Z,3.22
2022-08-25T16:07:42.832Z,3.60
2022-08-25T16:10:10.342Z,3.17
2022-08-25T16:12:39.953Z,3.40
2022-08-25T16:15:09.844Z,3.50
2022-08-25T16:17:40.707Z,3.28
2022-08-25T16:20:13.755Z,3.67
2022-08-25T16:22:40.890Z,3.65
2022-08-25T16:25:07.966Z,3.53
2022-08-25T16:27:38.625Z,3.20
2022-08-25T16:30:07.168Z,3.83
2022-08-25T16:32:35.077Z,3.28
2022-08-25T16:35:02.795Z,3.38
2022-08-25T16:37:29.776Z,3.42
2022-08-25T16:39:57.264Z,3.33
2022-08-25T16:42:24.247Z,3.60
2022-08-25T16:44:53.957Z,3.17
2022-08-25T16:47:25.148Z,3.40
2022-08-25T16:49:54.028Z,3.45
2022-08-25T16:52:40.647Z,3.42
2022-08-25T16:55:14.671Z,3.30
2022-08-25T16:57:45.293Z,3.00
2022-08-25T17:00:18.445Z,3.22
2022-08-25T17:02:45.801Z,3.15
2022-08-25T17:05:12.495Z,2.95
2022-08-25T17:07:39.361Z,3.10
2022-08-25T17:10:07.396Z,3.30
2022-08-25T17:12:39.493Z,3.25
2022-08-25T17:15:07.619Z,3.28
2022-08-25T17:17:36.241Z,3.35
2022-08-25T17:20:04.688Z,3.65
2022-08-25T17:22:31.747Z,3.55
2022-08-25T17:25:00.926Z,3.45
2022-08-25T17:27:28.314Z,3.20
2022-08-25T17:29:55.919Z,4.10
2022-08-25T17:32:28.902Z,3.60
2022-08-25T17:34:57.351Z,3.85
2022-08-25T17:37:24.426Z,3.20
2022-08-25T17:39:51.734Z,3.60
2022-08-25T17:42:30.387Z,3.25
2022-08-25T17:44:57.982Z,3.78
2022-08-25T17:47:24.605Z,4.53
2022-08-25T17:49:51.273Z,3.80
2022-08-25T17:52:20.665Z,3.78
2022-08-25T17:54:49.244Z,4.07
2022-08-25T17:57:16.513Z,3.80
2022-08-25T17:59:43.086Z,3.50
2022-08-25T18:02:09.827Z,4.53
2022-08-25T18:04:38.629Z,4.70
2022-08-25T18:07:06.852Z,3.70
2022-08-25T18:09:33.559Z,3.75
2022-08-25T18:12:00.160Z,3.97
2022-08-25T18:14:26.788Z,3.72
2022-08-25T18:16:54.255Z,3.58
2022-08-25T18:19:21.188Z,3.80
2022-08-25T18:21:48.261Z,3.38
2022-08-25T18:24:14.868Z,3.40
2022-08-25T18:26:42.137Z,3.42
2022-08-25T18:29:12.764Z,3.85
2022-08-25T18:31:41.757Z,3.65
2022-08-25T18:34:11.033Z,3.67
2022-08-25T18:36:38.768Z,3.75
2022-08-25T18:39:24.868Z,3.92
2022-08-25T18:41:51.943Z,3.67
2022-08-25T18:44:18.572Z,4.13
2022-08-25T18:46:46.364Z,3.77
2022-08-25T18:49:15.631Z,4.47
2022-08-25T18:51:44.549Z,4.53
2022-08-25T18:54:22.413Z,4.30
2022-08-25T18:56:51.387Z,5.07
2022-08-25T18:59:19.064Z,4.60
2022-08-25T19:01:45.999Z,4.13
2022-08-25T19:04:14.752Z,4.50
2022-08-25T19:06:43.766Z,4.33
2022-08-25T19:09:10.853Z,3.90
2022-08-25T19:11:38.230Z,4.57
2022-08-25T19:14:08.077Z,4.57
2022-08-25T19:16:40.908Z,4.30
2022-08-25T19:19:11.463Z,4.33
2022-08-25T19:21:39.332Z,4.13
2022-08-25T19:24:07.739Z,4.40
2022-08-25T19:26:36.451Z,4.63
2022-08-25T19:29:08.926Z,4.20
2022-08-25T19:31:37.297Z,4.20
2022-08-25T19:34:07.296Z,4.10
2022-08-25T19:36:34.140Z,4.17
2022-08-25T19:39:01.386Z,4.10
2022-08-25T19:41:31.060Z,4.50
2022-08-25T19:43:58.273Z,4.87
2022-08-25T19:46:35.219Z,4.23
2022-08-25T19:49:08.850Z,4.07
2022-08-25T19:51:44.104Z,4.10
2022-08-25T19:54:13.415Z,4.30
2022-08-25T19:56:43.618Z,4.70
2022-08-25T19:59:11.110Z,4.50
2022-08-25T20:01:37.735Z,4.43
2022-08-25T20:04:07.011Z,4.53
2022-08-25T20:06:33.599Z,4.13
2022-08-25T20:09:00.715Z,4.60
2022-08-25T20:11:28.918Z,4.67
2022-08-25T20:13:58.200Z,4.70
2022-08-25T20:16:28.095Z,4.97
2022-08-25T20:18:54.857Z,4.33
2022-08-25T20:21:22.075Z,4.50
2022-08-25T20:24:07.657Z,4.50
2022-08-25T20:26:36.314Z,4.70
2022-08-25T20:29:05.084Z,4.57
2022-08-25T20:31:32.281Z,4.67
2022-08-25T20:34:00.454Z,4.40
2022-08-25T20:36:29.761Z,5.33
2022-08-25T20:38:56.357Z,4.80
2022-08-25T20:41:25.905Z,4.70
2022-08-25T20:43:52.576Z,4.70
2022-08-25T20:46:19.375Z,4.87
2022-08-25T20:48:46.223Z,4.87
2022-08-25T20:51:13.216Z,4.30
2022-08-25T20:53:42.475Z,5.43
2022-08-25T20:56:15.447Z,4.87
2022-08-25T20:58:42.886Z,4.73
2022-08-25T21:01:22.922Z,5.20
2022-08-25T21:03:50.663Z,4.83
2022-08-25T21:06:17.694Z,5.23
2022-08-25T21:08:46.627Z,4.87
2022-08-25T21:11:15.398Z,4.87
2022-08-25T21:13:42.224Z,5.10
2022-08-25T21:16:09.201Z,4.90
2022-08-25T21:18:36.560Z,4.70
2022-08-25T21:21:12.174Z,5.40
2022-08-25T21:23:38.980Z,4.90
2022-08-25T21:26:06.579Z,5.37
2022-08-25T21:28:34.731Z,4.80
2022-08-25T21:31:02.079Z,5.20
2022-08-25T21:33:28.799Z,5.07
2022-08-25T21:35:55.865Z,5.23
2022-08-25T21:38:22.570Z,5.30
2022-08-25T21:40:49.709Z,4.93
2022-08-25T21:43:18.701Z,5.47
2022-08-25T21:45:47.081Z,5.03
2022-08-25T21:48:14.056Z,5.20
2022-08-25T21:50:41.035Z,4.87
2022-08-25T21:53:09.756Z,5.33
2022-08-25T21:55:41.799Z,5.10
2022-08-25T21:58:08.729Z,5.20
2022-08-25T22:00:36.689Z,5.00
2022-08-25T22:03:03.362Z,4.87
2022-08-25T22:05:29.984Z,5.13
2022-08-25T22:07:56.630Z,5.50
2022-08-25T22:10:23.413Z,4.93
2022-08-25T22:12:50.311Z,5.13
2022-08-25T22:15:18.272Z,5.93
2022-08-25T22:17:45.569Z,5.63
2022-08-25T22:20:17.309Z,5.43
2022-08-25T22:22:43.961Z,5.40
2022-08-25T22:25:12.931Z,5.87
2022-08-25T22:27:39.573Z,5.97
2022-08-25T22:30:06.936Z,5.37
2022-08-25T22:32:33.530Z,5.07
2022-08-25T22:35:00.691Z,5.67
2022-08-25T22:37:27.303Z,5.73
2022-08-25T22:39:57.185Z,5.47
2022-08-25T22:42:25.691Z,5.57
2022-08-25T22:44:53.773Z,5.50
2022-08-25T22:47:20.672Z,5.80
2022-08-25T22:49:47.482Z,5.70
2022-08-25T22:52:14.847Z,5.30
2022-08-25T22:54:41.952Z,5.80
2022-08-25T22:57:08.998Z,5.30
2022-08-25T22:59:37.028Z,5.97
2022-08-25T23:02:05.316Z,5.37
2022-08-25T23:04:33.460Z,5.83
2022-08-25T23:07:00.066Z,6.50
2022-08-25T23:09:26.696Z,5.63
2022-08-25T23:11:53.252Z,5.93
2022-08-25T23:14:19.999Z,6.20
2022-08-25T23:16:48.442Z,6.13
2022-08-25T23:19:17.511Z,6.90
2022-08-25T23:22:03.901Z,6.63
2022-08-25T23:24:31.519Z,6.40
2022-08-25T23:27:00.618Z,7.07
2022-08-25T23:29:28.158Z,6.93
2022-08-25T23:31:55.146Z,6.90
2022-08-25T23:34:22.174Z,6.40
2022-08-25T23:36:48.989Z,6.60
2022-08-25T23:39:15.645Z,5.83
2022-08-25T23:41:42.340Z,5.97
2022-08-25T23:44:09.325Z,6.00
2022-08-25T23:46:38.932Z,5.60
2022-08-25T23:49:08.444Z,5.40
2022-08-25T23:51:38.117Z,5.37
2022-08-25T23:54:09.549Z,5.83
2022-08-25T23:56:44.434Z,5.23
2022-08-25T23:59:12.976Z,5.70
